createdAt,value
2022-12-11T00:01:18.932Z,-1.00
2022-12-11T00:03:46.131Z,-0.40
2022-12-11T00:06:15.528Z,-1.10
2022-12-11T00:08:42.509Z,-1.10
2022-12-11T00:11:12.029Z,-1.10
2022-12-11T00:13:38.697Z,-1.00
2022-12-11T00:16:05.668Z,-1.00
2022-12-11T00:18:32.356Z,-0.90
2022-12-11T00:21:06.729Z,-0.90
2022-12-11T00:23:35.521Z,-0.90
2022-12-11T00:26:06.999Z,-0.90
2022-12-11T00:28:33.725Z,-0.90
2022-12-11T00:31:07.186Z,-0.90
2022-12-11T00:33:34.200Z,-0.90
2022-12-11T00:36:01.013Z,-0.80
2022-12-11T00:38:27.954Z,-0.80
2022-12-11T00:40:59.225Z,-0.90
2022-12-11T00:43:25.897Z,-0.90
2022-12-11T00:45:52.613Z,-0.90
2022-12-11T00:48:19.369Z,-0.90
2022-12-11T00:50:46.625Z,-0.80
2022-12-11T00:53:13.319Z,-0.80
2022-12-11T00:55:41.966Z,-0.80
2022-12-11T00:58:09.948Z,-0.70
2022-12-11T01:00:37.377Z,-0.80
2022-12-11T01:03:04.593Z,-0.80
2022-12-11T01:05:31.361Z,-0.80
2022-12-11T01:07:58.074Z,-0.80
2022-12-11T01:10:25.368Z,-0.80
2022-12-11T01:13:04.540Z,-0.80
2022-12-11T01:15:41.544Z,-0.70
2022-12-11T01:18:12.370Z,-0.70
2022-12-11T01:20:40.675Z,-0.70
2022-12-11T01:23:07.362Z,-0.70
2022-12-11T01:25:38.079Z,-0.70
2022-12-11T01:28:05.960Z,-0.60
2022-12-11T01:30:32.865Z,-0.70
2022-12-11T01:33:00.784Z,-0.70
2022-12-11T01:35:28.118Z,-0.60
2022-12-11T01:37:55.014Z,-0.60
2022-12-11T01:40:22.329Z,-0.60
2022-12-11T01:42:49.133Z,-0.60
2022-12-11T01:45:22.495Z,-0.50
2022-12-11T01:47:54.128Z,-0.50
2022-12-11T01:50:20.895Z,-0.50
2022-12-11T01:52:49.145Z,-0.50
2022-12-11T01:55:17.895Z,-0.50
2022-12-11T01:57:47.101Z,-0.50
2022-12-11T02:00:14.212Z,-0.50
2022-12-11T02:02:41.638Z,-0.50
2022-12-11T02:05:09.237Z,-0.60
2022-12-11T02:07:46.814Z,-0.60
2022-12-11T02:10:13.935Z,-0.60
2022-12-11T02:13:14.326Z,-0.60
2022-12-11T02:16:15.763Z,-0.60
2022-12-11T02:18:51.662Z,-0.50
2022-12-11T02:21:25.083Z,-0.50
2022-12-11T02:24:04.671Z,-0.50
2022-12-11T02:26:31.319Z,-0.40
2022-12-11T02:29:00.737Z,-0.50
2022-12-11T02:31:39.768Z,-0.40
2022-12-11T02:35:04.925Z,-0.40
2022-12-11T02:37:35.235Z,-0.40
2022-12-11T02:40:05.105Z,-0.40
2022-12-11T02:42:33.968Z,-0.40
2022-12-11T02:45:03.395Z,-0.40
2022-12-11T02:47:32.317Z,-0.20
2022-12-11T02:50:03.274Z,-0.40
2022-12-11T02:52:32.464Z,-0.40
2022-12-11T02:55:01.133Z,-0.40
2022-12-11T02:57:38.112Z,-0.40
2022-12-11T03:00:06.380Z,-0.40
2022-12-11T03:02:33.196Z,-0.40
2022-12-11T03:05:00.149Z,-0.40
2022-12-11T03:07:29.943Z,-0.40
2022-12-11T03:09:56.670Z,-0.30
2022-12-11T03:12:38.678Z,-0.30
2022-12-11T03:15:10.021Z,-0.30
2022-12-11T03:18:15.574Z,-0.30
2022-12-11T03:21:02.868Z,-0.30
2022-12-11T03:23:49.634Z,-0.30
2022-12-11T03:26:18.612Z,-0.30
2022-12-11T03:28:51.106Z,-0.30
2022-12-11T03:31:31.694Z,-0.30
2022-12-11T03:34:03.562Z,-0.40
2022-12-11T03:36:37.441Z,-0.30
2022-12-11T03:39:18.595Z,-0.30
2022-12-11T03:41:46.816Z,-0.30
2022-12-11T03:44:14.390Z,-0.30
2022-12-11T03:46:43.421Z,-0.20
2022-12-11T03:49:19.605Z,-0.30
2022-12-11T03:51:48.183Z,-0.30
2022-12-11T03:54:16.590Z,-0.30
2022-12-11T03:56:45.178Z,-0.30
2022-12-11T03:59:12.094Z,-0.30
2022-12-11T04:01:39.228Z,-0.30
2022-12-11T04:04:06.157Z,-0.30
2022-12-11T04:06:32.859Z,-0.30
2022-12-11T04:08:59.564Z,-0.30
2022-12-11T04:11:35.140Z,-0.30
2022-12-11T04:14:29.067Z,-0.30
2022-12-11T04:16:56.418Z,-0.30
2022-12-11T04:19:42.644Z,-0.30
2022-12-11T04:22:15.662Z,-0.30
2022-12-11T04:24:42.442Z,-0.30
2022-12-11T04:27:09.305Z,-0.30
2022-12-11T04:29:35.969Z,-0.30
2022-12-11T04:32:02.640Z,-0.30
2022-12-11T04:34:29.435Z,-0.30
2022-12-11T04:36:56.100Z,-0.30
2022-12-11T04:39:22.728Z,-0.30
2022-12-11T04:41:49.348Z,-0.40
2022-12-11T04:44:16.054Z,-0.30
2022-12-11T04:46:42.720Z,-0.30
2022-12-11T04:49:10.073Z,-0.30
2022-12-11T04:51:36.732Z,-0.40
2022-12-11T04:54:03.477Z,-0.30
2022-12-11T04:56:30.105Z,-0.30
2022-12-11T04:58:56.705Z,-0.30
2022-12-11T05:01:23.575Z,-0.20
2022-12-11T05:03:50.832Z,-0.20
2022-12-11T05:06:17.569Z,-0.20
2022-12-11T05:08:45.383Z,-0.20
2022-12-11T05:11:14.781Z,-0.20
2022-12-11T05:13:41.988Z,-0.20
2022-12-11T05:16:10.459Z,-0.20
2022-12-11T05:18:37.167Z,-0.10
2022-12-11T05:21:07.898Z,-0.10
2022-12-11T05:23:35.083Z,-0.10
2022-12-11T05:26:12.784Z,-0.20
2022-12-11T05:28:40.725Z,-0.20
2022-12-11T05:31:20.163Z,-0.20
2022-12-11T05:33:48.837Z,-0.20
2022-12-11T05:36:19.396Z,-0.20
2022-12-11T05:38:46.108Z,-0.20
2022-12-11T05:41:16.080Z,-0.20
2022-12-11T05:43:42.896Z,-0.20
2022-12-11T05:46:28.187Z,-0.20
2022-12-11T05:48:57.157Z,-0.20
2022-12-11T05:51:24.385Z,-0.30
2022-12-11T05:53:52.613Z,-0.20
2022-12-11T05:56:27.600Z,-0.20
2022-12-11T05:58:54.770Z,-0.20
2022-12-11T06:01:34.701Z,-0.20
2022-12-11T06:04:02.165Z,-0.30
2022-12-11T06:06:29.060Z,-0.20
2022-12-11T06:08:57.724Z,-0.30
2022-12-11T06:11:25.956Z,-0.20
2022-12-11T06:13:53.570Z,-0.20
2022-12-11T06:16:21.279Z,-0.20
2022-12-11T06:18:48.047Z,-0.20
2022-12-11T06:21:45.223Z,-0.20
2022-12-11T06:24:12.658Z,-0.20
2022-12-11T06:26:39.369Z,-0.20
2022-12-11T06:29:09.161Z,-0.20
2022-12-11T06:31:39.726Z,-0.20
2022-12-11T06:34:06.436Z,-0.20
2022-12-11T06:36:33.360Z,-0.20
2022-12-11T06:39:00.014Z,-0.20
2022-12-11T06:41:26.708Z,-0.20
2022-12-11T06:43:53.488Z,-0.20
2022-12-11T06:46:20.621Z,-1.10
2022-12-11T06:48:48.985Z,-0.20
2022-12-11T06:51:21.379Z,-0.20
2022-12-11T06:53:56.207Z,-0.20
2022-12-11T06:56:24.044Z,-0.20
2022-12-11T06:58:51.952Z,-0.20
2022-12-11T07:01:24.812Z,-0.20
2022-12-11T07:03:58.616Z,-0.20
2022-12-11T07:06:26.496Z,-0.20
2022-12-11T07:08:53.490Z,-0.10
2022-12-11T07:11:20.996Z,-0.20
2022-12-11T07:13:47.817Z,-0.20
2022-12-11T07:16:16.359Z,-0.10
2022-12-11T07:18:49.067Z,-0.10
2022-12-11T07:21:16.576Z,-0.10
2022-12-11T07:23:43.510Z,0.00
2022-12-11T07:26:12.479Z,-0.10
2022-12-11T07:28:39.592Z,0.00
2022-12-11T07:31:13.008Z,-0.10
2022-12-11T07:33:40.020Z,0.00
2022-12-11T07:36:09.282Z,0.00
2022-12-11T07:38:36.479Z,0.00
2022-12-11T07:41:07.837Z,-0.10
2022-12-11T07:43:35.372Z,-0.10
2022-12-11T07:46:04.142Z,0.00
2022-12-11T07:48:31.239Z,-0.10
2022-12-11T07:51:09.318Z,-0.10
2022-12-11T07:53:36.120Z,0.00
2022-12-11T07:56:03.187Z,0.00
2022-12-11T07:58:30.024Z,-0.10
2022-12-11T08:00:58.081Z,-0.10
2022-12-11T08:03:24.988Z,-0.10
2022-12-11T08:05:52.792Z,-0.10
2022-12-11T08:08:19.962Z,-0.10
2022-12-11T08:10:46.649Z,-0.10
2022-12-11T08:13:13.279Z,-0.10
2022-12-11T08:15:39.907Z,-0.10
2022-12-11T08:18:06.577Z,-0.10
2022-12-11T08:20:33.664Z,-0.10
2022-12-11T08:23:00.274Z,-0.10
2022-12-11T08:25:26.944Z,-0.10
2022-12-11T08:27:53.708Z,-0.10
2022-12-11T08:30:20.346Z,-0.10
2022-12-11T08:32:47.031Z,-0.10
2022-12-11T08:35:13.746Z,-0.10
2022-12-11T08:37:40.461Z,-0.10
2022-12-11T08:40:08.087Z,-0.20
2022-12-11T08:42:35.059Z,-0.10
2022-12-11T08:45:01.723Z,-0.10
2022-12-11T08:47:28.377Z,-0.20
2022-12-11T08:49:54.988Z,-0.20
2022-12-11T08:52:21.619Z,-0.10
2022-12-11T08:54:48.361Z,-0.10
2022-12-11T08:57:15.102Z,-0.10
2022-12-11T08:59:41.737Z,-0.10
2022-12-11T09:02:12.301Z,-0.10
2022-12-11T09:04:39.212Z,-0.10
2022-12-11T09:07:06.135Z,0.00
2022-12-11T09:09:32.752Z,0.00
2022-12-11T09:12:01.363Z,0.00
2022-12-11T09:14:28.144Z,0.10
2022-12-11T09:16:54.743Z,0.20
2022-12-11T09:19:21.504Z,0.20
2022-12-11T09:21:48.620Z,0.20
2022-12-11T09:24:15.567Z,0.10
2022-12-11T09:26:42.600Z,0.10
2022-12-11T09:29:10.883Z,0.10
2022-12-11T09:31:37.721Z,0.10
2022-12-11T09:34:07.534Z,0.50
2022-12-11T09:36:34.641Z,0.10
2022-12-11T09:39:03.746Z,1.10
2022-12-11T09:41:56.263Z,0.10
2022-12-11T09:44:41.412Z,0.10
2022-12-11T09:47:36.801Z,0.10
2022-12-11T09:50:09.153Z,0.20
2022-12-11T09:53:21.249Z,0.10
2022-12-11T09:56:04.714Z,0.10
2022-12-11T09:59:09.170Z,0.10
2022-12-11T10:01:48.900Z,0.10
2022-12-11T10:04:45.882Z,0.10
2022-12-11T10:07:17.981Z,0.10
2022-12-11T10:09:50.409Z,0.10
2022-12-11T10:12:42.213Z,0.10
2022-12-11T10:15:39.347Z,0.00
2022-12-11T10:18:12.573Z,0.00
2022-12-11T10:20:40.424Z,0.10
2022-12-11T10:23:09.886Z,0.10
2022-12-11T10:25:41.257Z,0.10
2022-12-11T10:28:19.862Z,0.10
2022-12-11T10:31:12.029Z,0.10
2022-12-11T10:33:54.471Z,0.20
2022-12-11T10:36:30.777Z,0.20
2022-12-11T10:38:58.153Z,0.30
2022-12-11T10:41:40.197Z,0.30
2022-12-11T10:44:28.598Z,0.30
2022-12-11T10:47:06.138Z,0.20
2022-12-11T10:49:35.719Z,0.30
2022-12-11T10:52:13.168Z,0.30
2022-12-11T10:54:43.681Z,0.30
2022-12-11T10:57:13.999Z,0.30
2022-12-11T10:59:43.636Z,0.30
2022-12-11T11:02:41.468Z,0.30
2022-12-11T11:05:17.554Z,0.30
2022-12-11T11:07:44.289Z,0.30
2022-12-11T11:10:17.499Z,0.30
2022-12-11T11:12:46.758Z,0.30
2022-12-11T11:15:19.398Z,0.30
2022-12-11T11:17:56.144Z,0.30
2022-12-11T11:20:29.182Z,0.30
2022-12-11T11:23:10.576Z,0.40
2022-12-11T11:25:37.388Z,0.30
2022-12-11T11:28:06.401Z,0.30
2022-12-11T11:30:39.538Z,0.30
2022-12-11T11:33:20.979Z,0.40
2022-12-11T11:36:02.361Z,0.40
2022-12-11T11:38:44.853Z,0.30
2022-12-11T11:41:19.981Z,0.30
2022-12-11T11:43:51.151Z,0.30
2022-12-11T11:46:20.286Z,0.30
2022-12-11T11:49:00.321Z,0.30
2022-12-11T11:51:54.590Z,0.30
2022-12-11T11:54:33.281Z,0.30
2022-12-11T11:57:05.516Z,0.30
2022-12-11T11:59:39.635Z,0.30
2022-12-11T12:02:15.015Z,0.40
2022-12-11T12:04:42.827Z,0.40
2022-12-11T12:07:29.424Z,0.40
2022-12-11T12:10:10.011Z,0.40
2022-12-11T12:13:00.138Z,0.40
2022-12-11T12:15:48.653Z,0.40
2022-12-11T12:18:15.280Z,0.40
2022-12-11T12:21:18.037Z,1.30
2022-12-11T12:24:08.960Z,0.40
2022-12-11T12:26:56.911Z,0.40
2022-12-11T12:29:38.864Z,0.40
2022-12-11T12:32:18.192Z,0.40
2022-12-11T12:34:50.593Z,0.30
2022-12-11T12:37:45.727Z,0.40
2022-12-11T12:40:50.409Z,0.30
2022-12-11T12:43:44.153Z,0.40
2022-12-11T12:46:29.118Z,0.30
2022-12-11T12:48:58.910Z,0.40
2022-12-11T12:51:27.065Z,0.30
2022-12-11T12:53:58.632Z,0.30
2022-12-11T12:56:27.219Z,0.30
2022-12-11T12:58:53.909Z,0.30
2022-12-11T13:01:23.604Z,0.40
2022-12-11T13:03:58.313Z,0.40
2022-12-11T13:06:40.592Z,0.40
2022-12-11T13:09:27.805Z,0.40
2022-12-11T13:11:57.920Z,0.40
2022-12-11T13:14:31.762Z,0.40
2022-12-11T13:17:08.588Z,0.40
2022-12-11T13:19:42.126Z,0.40
2022-12-11T13:22:15.292Z,0.40
2022-12-11T13:24:59.513Z,0.40
2022-12-11T13:27:37.138Z,0.40
2022-12-11T13:30:16.050Z,0.40
2022-12-11T13:32:53.464Z,0.40
2022-12-11T13:35:20.858Z,0.50
2022-12-11T13:37:51.810Z,0.50
2022-12-11T13:40:25.577Z,0.50
2022-12-11T13:43:03.005Z,0.50
2022-12-11T13:45:40.230Z,0.60
2022-12-11T13:48:27.868Z,0.50
2022-12-11T13:50:56.211Z,0.60
2022-12-11T13:53:23.825Z,0.50
2022-12-11T13:56:07.836Z,0.50
2022-12-11T13:58:37.950Z,0.60
2022-12-11T14:01:12.571Z,0.50
2022-12-11T14:03:41.890Z,0.50
2022-12-11T14:06:18.250Z,0.50
2022-12-11T14:08:53.364Z,0.40
2022-12-11T14:11:27.880Z,0.50
2022-12-11T14:13:57.718Z,0.50
2022-12-11T14:16:26.513Z,0.50
2022-12-11T14:18:54.817Z,0.50
2022-12-11T14:21:25.608Z,0.50
2022-12-11T14:23:55.918Z,0.50
2022-12-11T14:26:30.370Z,0.50
2022-12-11T14:28:57.232Z,0.50
2022-12-11T14:31:43.660Z,0.80
2022-12-11T14:34:18.572Z,0.50
2022-12-11T14:36:47.074Z,0.50
2022-12-11T14:39:49.114Z,0.50
2022-12-11T14:42:21.401Z,0.50
2022-12-11T14:44:50.900Z,0.60
2022-12-11T14:47:26.344Z,0.60
2022-12-11T14:50:19.021Z,0.60
2022-12-11T14:52:59.840Z,0.60
2022-12-11T14:55:30.657Z,0.60
2022-12-11T14:58:00.517Z,0.60
2022-12-11T15:00:30.254Z,0.60
2022-12-11T15:02:59.564Z,0.60
2022-12-11T15:05:26.717Z,0.60
2022-12-11T15:07:58.074Z,0.60
2022-12-11T15:10:32.336Z,0.60
2022-12-11T15:12:59.428Z,0.60
2022-12-11T15:15:27.930Z,0.50
2022-12-11T15:17:54.688Z,0.50
2022-12-11T15:20:26.005Z,0.50
2022-12-11T15:22:53.823Z,0.50
2022-12-11T15:25:28.508Z,0.50
2022-12-11T15:27:59.029Z,0.50
2022-12-11T15:30:31.578Z,0.50
2022-12-11T15:33:17.655Z,0.50
2022-12-11T15:35:55.294Z,0.50
2022-12-11T15:38:31.790Z,0.50
2022-12-11T15:40:58.848Z,0.50
2022-12-11T15:43:26.137Z,0.50
2022-12-11T15:45:52.835Z,0.40
2022-12-11T15:48:19.538Z,0.50
2022-12-11T15:50:46.233Z,0.50
2022-12-11T15:53:12.883Z,0.50
2022-12-11T15:55:39.639Z,0.50
2022-12-11T15:58:13.702Z,0.50
2022-12-11T16:00:40.363Z,0.50
2022-12-11T16:03:07.027Z,0.40
2022-12-11T16:05:33.752Z,0.40
2022-12-11T16:08:00.519Z,0.40
2022-12-11T16:10:27.468Z,0.40
2022-12-11T16:12:59.169Z,0.50
2022-12-11T16:15:27.008Z,0.50
2022-12-11T16:18:01.388Z,0.50
2022-12-11T16:20:28.140Z,0.40
2022-12-11T16:22:54.879Z,0.40
2022-12-11T16:25:21.606Z,0.40
2022-12-11T16:27:48.331Z,0.50
2022-12-11T16:30:15.305Z,0.50
2022-12-11T16:32:42.604Z,0.50
2022-12-11T16:35:09.511Z,0.50
2022-12-11T16:37:36.431Z,0.40
2022-12-11T16:40:03.266Z,0.40
2022-12-11T16:42:29.882Z,0.40
2022-12-11T16:45:08.497Z,0.40
2022-12-11T16:47:35.248Z,0.40
2022-12-11T16:50:02.128Z,0.40
2022-12-11T16:52:28.855Z,0.40
2022-12-11T16:54:57.008Z,0.40
2022-12-11T16:57:24.132Z,0.50
2022-12-11T16:59:51.005Z,0.40
2022-12-11T17:02:18.378Z,0.40
2022-12-11T17:04:52.131Z,0.40
2022-12-11T17:07:20.579Z,0.40
2022-12-11T17:09:47.284Z,0.40
2022-12-11T17:12:14.010Z,0.50
2022-12-11T17:14:40.752Z,0.50
2022-12-11T17:17:07.422Z,0.40
2022-12-11T17:19:34.264Z,0.40
2022-12-11T17:22:00.917Z,0.40
2022-12-11T17:24:27.676Z,0.40
2022-12-11T17:26:55.260Z,0.50
2022-12-11T17:29:22.070Z,0.50
2022-12-11T17:31:48.788Z,0.40
2022-12-11T17:34:15.971Z,0.40
2022-12-11T17:36:42.620Z,0.50
2022-12-11T17:39:09.248Z,0.40
2022-12-11T17:41:35.863Z,0.40
2022-12-11T17:44:02.582Z,0.40
2022-12-11T17:46:29.309Z,0.40
2022-12-11T17:48:56.682Z,0.40
2022-12-11T17:51:25.992Z,0.40
2022-12-11T17:53:55.745Z,0.40
2022-12-11T17:56:23.868Z,0.40
2022-12-11T17:58:50.852Z,0.40
2022-12-11T18:01:17.962Z,0.40
2022-12-11T18:03:44.666Z,0.40
2022-12-11T18:06:14.494Z,0.40
2022-12-11T18:08:42.226Z,0.40
2022-12-11T18:11:11.789Z,0.40
2022-12-11T18:13:38.619Z,0.40
2022-12-11T18:16:33.596Z,0.40
2022-12-11T18:19:00.509Z,0.40
2022-12-11T18:21:31.698Z,0.40
2022-12-11T18:23:59.504Z,0.40
2022-12-11T18:26:26.938Z,0.40
2022-12-11T18:28:53.908Z,0.40
2022-12-11T18:31:22.173Z,0.30
2022-12-11T18:33:49.638Z,0.30
2022-12-11T18:36:17.595Z,0.30
2022-12-11T18:38:44.987Z,0.40
2022-12-11T18:41:13.259Z,0.40
2022-12-11T18:43:40.610Z,0.40
2022-12-11T18:46:14.141Z,0.40
2022-12-11T18:48:42.431Z,0.40
2022-12-11T18:51:13.343Z,0.40
2022-12-11T18:53:40.418Z,0.40
2022-12-11T18:56:10.028Z,0.40
2022-12-11T18:58:37.395Z,0.40
2022-12-11T19:01:16.133Z,0.30
2022-12-11T19:03:42.785Z,0.30
2022-12-11T19:06:21.254Z,0.40
2022-12-11T19:08:48.192Z,0.40
2022-12-11T19:11:16.911Z,0.40
2022-12-11T19:13:43.986Z,0.40
2022-12-11T19:16:19.110Z,0.30
2022-12-11T19:18:45.817Z,0.30
2022-12-11T19:21:13.821Z,0.40
2022-12-11T19:23:41.108Z,0.40
2022-12-11T19:26:13.261Z,0.40
2022-12-11T19:28:40.262Z,0.40
2022-12-11T19:31:12.254Z,0.30
2022-12-11T19:33:40.800Z,0.30
2022-12-11T19:36:13.830Z,0.30
2022-12-11T19:38:42.269Z,0.30
2022-12-11T19:41:13.019Z,0.30
2022-12-11T19:43:39.710Z,0.30
2022-12-11T19:46:09.217Z,0.40
2022-12-11T19:48:41.277Z,0.30
2022-12-11T19:51:14.544Z,0.30
2022-12-11T19:53:42.292Z,0.30
2022-12-11T19:56:09.164Z,0.30
2022-12-11T19:58:35.885Z,0.30
2022-12-11T20:01:03.465Z,0.30
2022-12-11T20:03:30.970Z,0.30
2022-12-11T20:06:08.024Z,0.30
2022-12-11T20:08:44.477Z,0.30
2022-12-11T20:11:17.544Z,0.30
2022-12-11T20:13:45.970Z,0.30
2022-12-11T20:16:13.273Z,0.40
2022-12-11T20:18:40.108Z,0.40
2022-12-11T20:21:11.592Z,0.40
2022-12-11T20:23:38.277Z,0.40
2022-12-11T20:26:14.284Z,0.40
2022-12-11T20:28:41.461Z,0.40
2022-12-11T20:31:14.969Z,0.40
2022-12-11T20:33:46.860Z,0.40
2022-12-11T20:36:15.575Z,0.40
2022-12-11T20:38:43.281Z,0.40
2022-12-11T20:41:12.836Z,0.40
2022-12-11T20:43:39.873Z,0.50
2022-12-11T20:46:08.938Z,0.40
2022-12-11T20:48:36.498Z,1.20
2022-12-11T20:51:04.647Z,0.40
2022-12-11T20:53:31.509Z,0.50
2022-12-11T20:55:58.207Z,0.50
2022-12-11T20:58:24.857Z,0.40
2022-12-11T21:00:52.356Z,0.50
2022-12-11T21:03:19.313Z,0.50
2022-12-11T21:05:46.418Z,0.50
2022-12-11T21:08:13.520Z,0.50
2022-12-11T21:10:46.248Z,0.40
2022-12-11T21:13:12.947Z,0.40
2022-12-11T21:15:40.377Z,0.50
2022-12-11T21:18:07.689Z,0.50
2022-12-11T21:20:35.096Z,0.50
2022-12-11T21:23:02.746Z,0.50
2022-12-11T21:25:29.699Z,0.40
2022-12-11T21:27:56.357Z,0.40
2022-12-11T21:30:23.108Z,0.40
2022-12-11T21:32:49.720Z,0.40
2022-12-11T21:35:16.544Z,0.40
2022-12-11T21:37:43.163Z,0.40
2022-12-11T21:40:10.370Z,0.40
2022-12-11T21:42:37.004Z,0.40
2022-12-11T21:47:51.306Z,0.40
2022-12-11T21:50:18.973Z,0.50
2022-12-11T21:52:45.599Z,0.50
2022-12-11T21:55:13.028Z,0.50
2022-12-11T21:57:39.995Z,0.40
2022-12-11T22:00:07.333Z,0.50
2022-12-11T22:02:39.054Z,0.50
2022-12-11T22:05:07.857Z,0.50
2022-12-11T22:07:34.620Z,0.50
2022-12-11T22:10:01.324Z,0.50
2022-12-11T22:12:28.517Z,0.40
2022-12-11T22:14:55.956Z,0.40
2022-12-11T22:17:23.190Z,0.40
2022-12-11T22:19:51.966Z,0.40
2022-12-11T22:22:19.455Z,0.40
2022-12-11T22:24:46.660Z,0.40
2022-12-11T22:27:13.422Z,0.40
2022-12-11T22:29:40.107Z,0.40
2022-12-11T22:32:06.804Z,0.40
2022-12-11T22:34:33.533Z,0.40
2022-12-11T22:37:00.207Z,0.40
2022-12-11T22:39:26.863Z,0.40
2022-12-11T22:41:53.571Z,0.40
2022-12-11T22:44:21.798Z,0.40
2022-12-11T22:46:50.458Z,0.40
2022-12-11T22:49:19.293Z,0.50
2022-12-11T22:51:46.273Z,0.30
2022-12-11T22:54:12.911Z,0.40
2022-12-11T22:56:39.624Z,0.40
2022-12-11T22:59:07.565Z,0.30
2022-12-11T23:01:34.630Z,0.30
2022-12-11T23:04:01.397Z,0.30
2022-12-11T23:06:28.252Z,0.30
2022-12-11T23:08:58.605Z,0.30
2022-12-11T23:11:29.069Z,0.30
2022-12-11T23:13:56.708Z,0.30
2022-12-11T23:16:25.047Z,0.30
2022-12-11T23:18:52.468Z,0.40
2022-12-11T23:21:19.303Z,0.40
2022-12-11T23:23:46.672Z,0.40
2022-12-11T23:26:14.607Z,0.50
2022-12-11T23:28:41.836Z,0.40
2022-12-11T23:31:09.223Z,0.40
2022-12-11T23:33:36.248Z,0.50
2022-12-11T23:36:04.256Z,0.50
2022-12-11T23:38:30.896Z,0.50
2022-12-11T23:40:59.879Z,0.60
2022-12-11T23:43:26.619Z,0.50
2022-12-11T23:45:53.817Z,0.50
2022-12-11T23:48:20.913Z,0.60
2022-12-11T23:50:48.171Z,0.60
2022-12-11T23:53:15.115Z,0.50
2022-12-11T23:55:43.765Z,0.50
2022-12-11T23:58:10.847Z,0.50
